Time;durP1;ratioP1;P1;durP2;ratioP2;P2;SDS_P1;SDS_P2;PMS_P1;PMS_P2;Temp;Humidity;BMP_temperature;BMP_pressure;BME280_temperature;BME280_humidity;BME280_pressure;Samples;Min_cycle;Max_cycle;Signal;HPM_P1;HPM_P2
2023/10/18 00:01:05;;;;;;;7.93;3.80;;;8.40;99.90;;;;;;5074314;28;20126;-82
2023/10/18 00:03:32;;;;;;;7.60;3.10;;;8.40;99.90;;;;;;5073909;28;20074;-83
2023/10/18 00:06:11;;;;;;;5.72;2.92;;;8.40;99.90;;;;;;5073102;28;20395;-82
2023/10/18 00:08:40;;;;;;;6.57;3.53;;;8.40;99.90;;;;;;5072627;28;20124;-82
2023/10/18 00:11:06;;;;;;;7.32;3.35;;;8.30;99.90;;;;;;5073105;28;20028;-83
2023/10/18 00:13:33;;;;;;;6.65;3.40;;;8.40;99.90;;;;;;5072800;28;20031;-83
2023/10/18 00:16:06;;;;;;;7.00;3.67;;;8.40;99.90;;;;;;5073244;28;20096;-83
2023/10/18 00:18:32;;;;;;;5.95;3.20;;;8.30;99.90;;;;;;5072576;28;20036;-83
2023/10/18 00:21:03;;;;;;;7.10;3.80;;;8.30;99.90;;;;;;5072957;28;20024;-83
2023/10/18 00:23:31;;;;;;;7.35;3.63;;;8.30;99.90;;;;;;5072406;28;20025;-82
2023/10/18 00:26:00;;;;;;;5.05;3.30;;;8.30;99.90;;;;;;5073869;28;20024;-82
2023/10/18 00:28:26;;;;;;;7.70;3.67;;;8.30;99.90;;;;;;5072679;28;20039;-82
2023/10/18 00:30:52;;;;;;;9.43;3.63;;;8.30;99.90;;;;;;5072964;28;20096;-81
2023/10/18 00:33:18;;;;;;;6.90;3.80;;;8.30;99.90;;;;;;5073606;28;20025;-81
2023/10/18 00:35:47;;;;;;;6.75;3.95;;;8.30;99.90;;;;;;5074021;28;20044;-82
2023/10/18 00:38:16;;;;;;;7.43;3.53;;;8.20;99.90;;;;;;5072992;28;20032;-82
2023/10/18 00:40:45;;;;;;;7.97;3.67;;;8.30;99.90;;;;;;5072896;28;20531;-81
2023/10/18 00:43:26;;;;;;;7.95;3.85;;;8.20;99.90;;;;;;5072743;28;20035;-81
2023/10/18 00:45:53;;;;;;;8.07;4.15;;;8.20;99.90;;;;;;5072831;28;20055;-81
2023/10/18 00:48:23;;;;;;;5.72;3.47;;;8.20;99.90;;;;;;5073331;28;20153;-82
2023/10/18 00:50:54;;;;;;;6.88;3.65;;;8.20;99.90;;;;;;5072720;28;20079;-82
2023/10/18 00:53:22;;;;;;;7.93;4.20;;;8.20;99.90;;;;;;5073412;28;20017;-82
2023/10/18 00:58:48;;;;;;;7.53;4.00;;;8.20;99.90;;;;;;5077060;28;20473;-82
2023/10/18 01:01:15;;;;;;;9.02;4.38;;;8.20;99.90;;;;;;5076994;28;20029;-82
2023/10/18 01:03:46;;;;;;;8.93;3.90;;;8.10;99.90;;;;;;5077997;28;20025;-82
2023/10/18 01:06:16;;;;;;;7.05;3.92;;;8.20;99.90;;;;;;5076474;28;20028;-82
2023/10/18 01:08:44;;;;;;;7.72;3.72;;;8.10;99.90;;;;;;5076959;28;20035;-82
2023/10/18 01:11:10;;;;;;;9.27;4.60;;;8.10;99.90;;;;;;5076635;28;20119;-82
2023/10/18 01:13:40;;;;;;;8.32;4.22;;;8.10;99.90;;;;;;5075907;28;20091;-82
2023/10/18 01:16:13;;;;;;;7.22;3.78;;;8.10;99.90;;;;;;5077581;28;20032;-82
2023/10/18 01:18:42;;;;;;;7.38;3.70;;;8.10;99.90;;;;;;5075964;28;20032;-81
2023/10/18 01:21:19;;;;;;;8.35;4.45;;;8.10;99.90;;;;;;5077227;28;20031;-82
2023/10/18 01:23:49;;;;;;;6.93;4.15;;;8.10;99.90;;;;;;5077400;28;20099;-81
2023/10/18 01:26:16;;;;;;;8.10;4.13;;;8.10;99.90;;;;;;5077562;28;20028;-81
2023/10/18 01:28:42;;;;;;;8.43;4.53;;;8.00;99.90;;;;;;5075615;28;20056;-81
2023/10/18 01:31:09;;;;;;;9.07;4.45;;;8.00;99.90;;;;;;5076240;28;20031;-81
2023/10/18 01:33:39;;;;;;;7.32;4.05;;;8.00;99.90;;;;;;5075495;28;20032;-81
2023/10/18 01:36:05;;;;;;;6.40;4.00;;;8.00;99.90;;;;;;5075576;28;20052;-83
2023/10/18 01:38:31;;;;;;;6.68;4.05;;;8.00;99.90;;;;;;5076169;28;20496;-83
2023/10/18 01:41:00;;;;;;;8.20;4.13;;;8.00;99.90;;;;;;5077021;28;20028;-83
2023/10/18 01:43:28;;;;;;;6.65;4.20;;;8.00;99.90;;;;;;5075349;28;20039;-82
2023/10/18 01:45:54;;;;;;;8.82;4.43;;;8.00;99.90;;;;;;5075570;28;20132;-82
2023/10/18 01:48:20;;;;;;;9.10;4.20;;;8.00;99.90;;;;;;5076465;28;20039;-82
2023/10/18 01:50:47;;;;;;;9.93;4.78;;;8.00;99.90;;;;;;5075907;28;20028;-83
2023/10/18 01:53:15;;;;;;;8.52;4.28;;;8.00;99.90;;;;;;5075824;28;20035;-81
2023/10/18 01:55:52;;;;;;;8.57;4.22;;;8.00;99.90;;;;;;5076226;28;20034;-81
2023/10/18 01:58:23;;;;;;;11.23;4.22;;;8.00;99.90;;;;;;5075614;28;20021;-81
2023/10/18 02:00:49;;;;;;;9.17;4.60;;;7.90;99.90;;;;;;5075178;28;20055;-82
2023/10/18 02:03:15;;;;;;;7.88;4.38;;;8.00;99.90;;;;;;5075651;28;20750;-81
2023/10/18 02:05:44;;;;;;;7.95;4.20;;;7.90;99.90;;;;;;5075137;28;20032;-82
2023/10/18 02:08:11;;;;;;;8.18;4.30;;;7.90;99.90;;;;;;5075472;28;20032;-83
2023/10/18 02:10:40;;;;;;;8.00;4.57;;;7.90;99.90;;;;;;5075039;28;20516;-82
2023/10/18 02:13:08;;;;;;;12.07;5.53;;;7.90;99.90;;;;;;5076538;28;20032;-83
2023/10/18 02:15:35;;;;;;;7.38;4.80;;;7.90;99.90;;;;;;5075744;28;20074;-82
2023/10/18 02:18:00;;;;;;;8.85;3.80;;;7.90;99.90;;;;;;5076257;28;20063;-81
2023/10/18 02:20:26;;;;;;;7.97;4.72;;;7.90;99.90;;;;;;5075723;28;20029;-82
2023/10/18 02:22:59;;;;;;;10.70;4.05;;;7.80;99.90;;;;;;5075456;28;20577;-82
2023/10/18 02:28:22;;;;;;;9.50;4.78;;;7.80;99.90;;;;;;5076050;28;20092;-82
2023/10/18 02:31:03;;;;;;;9.23;4.15;;;7.90;99.90;;;;;;5074675;28;20112;-82
2023/10/18 02:33:36;;;;;;;8.43;4.82;;;7.90;99.90;;;;;;5074881;28;20426;-82
2023/10/18 02:36:07;;;;;;;9.73;4.63;;;7.90;99.90;;;;;;5076190;28;20102;-81
2023/10/18 02:38:33;;;;;;;9.13;4.30;;;7.90;99.90;;;;;;5074436;28;20123;-81
2023/10/18 02:41:14;;;;;;;8.45;4.78;;;7.80;99.90;;;;;;5076090;28;20035;-81
2023/10/18 02:43:46;;;;;;;9.77;4.50;;;7.80;99.90;;;;;;5074245;28;20075;-81
2023/10/18 02:46:14;;;;;;;7.10;4.43;;;7.80;99.90;;;;;;5074611;28;20037;-81
2023/10/18 02:48:41;;;;;;;8.00;4.53;;;7.80;99.90;;;;;;5074090;28;20432;-82
2023/10/18 02:51:06;;;;;;;8.50;4.20;;;7.80;99.90;;;;;;5075736;28;20020;-82
2023/10/18 02:53:40;;;;;;;7.10;4.43;;;7.70;99.90;;;;;;5074009;28;20028;-82
2023/10/18 02:56:06;;;;;;;8.45;4.50;;;7.80;99.90;;;;;;5074446;28;20040;-82
2023/10/18 02:58:33;;;;;;;10.38;4.63;;;7.70;99.90;;;;;;5074963;28;20029;-82
2023/10/18 03:01:05;;;;;;;9.48;4.80;;;7.70;99.90;;;;;;5075611;28;20024;-82
2023/10/18 03:03:32;;;;;;;8.63;4.65;;;7.70;99.90;;;;;;5074063;28;20035;-81
2023/10/18 03:06:01;;;;;;;7.82;4.50;;;7.70;99.90;;;;;;5075180;28;20111;-82
2023/10/18 03:08:28;;;;;;;10.30;5.35;;;7.70;99.90;;;;;;5086954;28;20038;-82
2023/10/18 03:10:53;;;;;;;9.38;4.90;;;7.60;99.90;;;;;;5094359;28;20123;-82
2023/10/18 03:13:23;;;;;;;10.90;4.93;;;7.60;99.90;;;;;;5094302;28;20091;-82
2023/10/18 03:16:04;;;;;;;9.63;4.97;;;7.70;99.90;;;;;;5093917;28;20036;-82
2023/10/18 03:18:31;;;;;;;10.93;5.30;;;7.60;99.90;;;;;;5093843;28;20031;-82
2023/10/18 03:20:57;;;;;;;8.32;4.53;;;7.60;99.90;;;;;;5094419;28;20028;-82
2023/10/18 03:23:26;;;;;;;8.40;4.75;;;7.60;99.90;;;;;;5095331;28;20458;-82
2023/10/18 03:26:08;;;;;;;10.63;5.10;;;7.60;99.90;;;;;;5094339;28;20028;-82
2023/10/18 03:28:34;;;;;;;7.47;4.60;;;7.70;99.90;;;;;;5093638;28;20473;-82
2023/10/18 03:31:21;;;;;;;11.43;5.13;;;7.70;99.90;;;;;;5094234;28;20123;-81
2023/10/18 03:33:59;;;;;;;7.88;4.32;;;7.70;99.90;;;;;;5094569;28;20020;-81
2023/10/18 03:36:26;;;;;;;7.63;4.70;;;7.60;99.90;;;;;;5093875;28;20126;-81
2023/10/18 03:39:13;;;;;;;10.05;5.22;;;7.60;99.90;;;;;;5093638;28;20056;-82
2023/10/18 03:41:42;;;;;;;11.43;5.63;;;7.70;99.90;;;;;;5093593;28;20389;-81
2023/10/18 03:44:08;;;;;;;10.02;4.80;;;7.60;99.90;;;;;;5093928;28;20048;-81
2023/10/18 03:46:49;;;;;;;8.70;5.20;;;7.60;99.90;;;;;;5092895;28;20431;-81
2023/10/18 03:49:24;;;;;;;10.27;5.10;;;7.60;99.90;;;;;;5094000;28;20050;-81
2023/10/18 03:51:53;;;;;;;9.63;4.95;;;7.60;99.90;;;;;;5093355;28;20060;-81
2023/10/18 03:54:19;;;;;;;12.98;5.35;;;7.60;99.90;;;;;;5093831;28;20039;-81
2023/10/18 03:56:52;;;;;;;9.13;5.32;;;7.60;99.90;;;;;;5093372;28;20447;-80
2023/10/18 03:59:19;;;;;;;10.90;5.70;;;7.60;99.90;;;;;;5093852;28;20020;-81
2023/10/18 04:02:05;;;;;;;9.05;5.25;;;7.60;99.90;;;;;;5093133;28;20114;-81
2023/10/18 04:04:37;;;;;;;10.32;5.32;;;7.60;99.90;;;;;;5093075;28;20020;-81
2023/10/18 04:07:13;;;;;;;9.77;5.57;;;7.60;99.90;;;;;;5094456;28;20043;-81
2023/10/18 04:09:45;;;;;;;8.95;5.13;;;7.60;99.90;;;;;;5093397;28;20389;-81
2023/10/18 04:12:13;;;;;;;9.88;5.28;;;7.60;99.90;;;;;;5093478;28;20582;-81
2023/10/18 04:14:39;;;;;;;9.35;5.00;;;7.60;99.90;;;;;;5092745;28;20119;-81
2023/10/18 04:17:12;;;;;;;10.15;5.60;;;7.60;99.90;;;;;;5093255;28;20429;-81
2023/10/18 04:19:37;;;;;;;;;;;7.50;99.90;;;;;;5093238;28;20031;-81
2023/10/18 04:22:08;;;;;;;11.00;5.28;;;7.50;99.90;;;;;;5093210;28;19904;-81
2023/10/18 04:24:33;;;;;;;9.65;5.20;;;7.50;99.90;;;;;;5092725;28;20039;-81
2023/10/18 04:27:02;;;;;;;9.75;5.35;;;7.50;99.90;;;;;;5093219;28;20031;-82
2023/10/18 04:29:33;;;;;;;10.07;5.40;;;7.50;99.90;;;;;;5092793;28;20020;-82
2023/10/18 04:31:59;;;;;;;9.80;5.60;;;7.40;99.90;;;;;;5093520;28;20377;-82
2023/10/18 04:34:29;;;;;;;11.40;5.68;;;7.50;99.90;;;;;;5093152;28;20044;-82
2023/10/18 04:36:55;;;;;;;10.00;5.63;;;7.50;99.90;;;;;;5093427;28;20028;-82
2023/10/18 04:39:21;;;;;;;11.20;6.13;;;7.50;99.90;;;;;;5093329;28;20020;-82
2023/10/18 04:41:47;;;;;;;9.00;5.15;;;7.50;99.90;;;;;;5093602;28;20046;-82
2023/10/18 04:44:23;;;;;;;10.45;5.43;;;7.40;99.90;;;;;;5094098;28;20021;-82
2023/10/18 04:46:53;;;;;;;11.38;5.80;;;7.40;99.90;;;;;;5092382;28;20047;-81
2023/10/18 04:49:38;;;;;;;10.73;5.70;;;7.40;99.90;;;;;;5092862;28;20021;-82
2023/10/18 04:52:20;;;;;;;10.90;5.38;;;7.40;99.90;;;;;;5092866;28;20123;-82
2023/10/18 04:54:59;;;;;;;11.05;5.25;;;7.40;99.90;;;;;;5092705;28;20477;-81
2023/10/18 04:57:25;;;;;;;11.80;5.47;;;7.40;99.90;;;;;;5094124;28;20469;-81
2023/10/18 04:59:59;;;;;;;9.35;5.20;;;7.40;99.90;;;;;;5092217;28;20081;-81
2023/10/18 05:02:29;;;;;;;10.90;5.63;;;7.40;99.90;;;;;;5092754;28;20583;-82
2023/10/18 05:04:57;;;;;;;12.43;5.93;;;7.30;99.90;;;;;;5092242;28;20073;-81
2023/10/18 05:07:41;;;;;;;11.25;5.85;;;7.30;99.90;;;;;;5093683;28;20052;-81
2023/10/18 05:10:14;;;;;;;12.18;6.70;;;7.40;99.90;;;;;;5093723;28;20016;-81
2023/10/18 05:12:48;;;;;;;10.73;6.10;;;7.30;99.90;;;;;;5092370;28;20158;-81
2023/10/18 05:15:29;;;;;;;13.57;6.68;;;7.30;99.90;;;;;;5092648;28;20496;-80
2023/10/18 05:17:59;;;;;;;13.23;6.20;;;7.30;99.90;;;;;;5093116;28;20054;-81
2023/10/18 05:20:27;;;;;;;10.88;6.00;;;7.30;99.90;;;;;;5092978;28;20491;-81
2023/10/18 05:22:58;;;;;;;10.93;5.82;;;7.30;99.90;;;;;;5092242;28;20024;-81
2023/10/18 05:25:30;;;;;;;12.95;6.50;;;7.30;99.90;;;;;;5092661;28;20115;-81
2023/10/18 05:31:26;;;;;;;12.95;6.28;;;7.30;99.90;;;;;;5079700;28;20111;-81
2023/10/18 05:33:49;;;;;;;14.23;7.07;;;7.40;99.90;;;;;;5092554;28;20381;-81
2023/10/18 05:41:28;;;;;;;12.82;6.18;;;7.40;99.90;;;;;;5094758;28;20468;-81
2023/10/18 05:44:00;;;;;;;13.07;6.43;;;7.50;99.90;;;;;;5095699;28;20058;-83
2023/10/18 05:46:27;;;;;;;10.25;5.57;;;7.50;99.90;;;;;;5096279;28;20032;-82
2023/10/18 05:48:57;;;;;;;13.10;6.15;;;7.50;99.90;;;;;;5095341;28;20036;-82
2023/10/18 05:53:49;;;;;;;17.40;7.15;;;7.40;99.90;;;;;;5096478;28;20107;-81
2023/10/18 05:56:15;;;;;;;13.60;6.63;;;7.40;99.90;;;;;;5095866;28;20063;-81
2023/10/18 05:58:41;;;;;;;12.82;5.97;;;7.40;99.90;;;;;;5095474;28;20026;-81
2023/10/18 06:01:06;;;;;;;12.93;6.47;;;7.40;99.90;;;;;;5095474;28;20485;-81
2023/10/18 06:03:41;;;;;;;13.80;7.10;;;7.50;99.90;;;;;;5095751;28;20111;-82
2023/10/18 06:06:09;;;;;;;13.68;6.65;;;7.50;99.90;;;;;;5095902;28;20032;-81
2023/10/18 06:08:36;;;;;;;12.70;6.80;;;7.50;99.90;;;;;;5096434;28;20477;-81
2023/10/18 06:11:08;;;;;;;13.80;6.20;;;7.50;99.90;;;;;;5096791;28;20502;-81
2023/10/18 06:13:37;;;;;;;12.50;6.55;;;7.60;99.90;;;;;;5095902;28;20032;-81
2023/10/18 06:16:18;;;;;;;14.45;7.00;;;7.60;99.90;;;;;;5096620;28;20032;-81
2023/10/18 06:18:48;;;;;;;15.80;6.60;;;7.60;99.90;;;;;;5096140;28;20032;-81
2023/10/18 06:21:18;;;;;;;14.18;6.85;;;7.60;99.90;;;;;;5095333;28;20032;-82
2023/10/18 06:23:54;;;;;;;13.63;6.90;;;7.60;99.90;;;;;;5094988;28;20024;-81
2023/10/18 06:26:30;;;;;;;12.60;6.95;;;7.70;99.90;;;;;;5095326;28;20028;-81
2023/10/18 06:29:02;;;;;;;13.38;7.40;;;7.60;99.90;;;;;;5095013;28;20515;-81
2023/10/18 06:31:29;;;;;;;16.15;7.82;;;7.70;99.90;;;;;;5095404;28;20025;-82
2023/10/18 06:33:57;;;;;;;21.02;7.30;;;7.70;99.90;;;;;;5094867;28;20074;-82
2023/10/18 06:36:24;;;;;;;15.68;7.45;;;7.70;99.90;;;;;;5095515;28;20093;-82
2023/10/18 06:38:51;;;;;;;14.07;7.30;;;7.70;99.90;;;;;;5094297;28;20028;-81
2023/10/18 06:41:21;;;;;;;19.13;7.03;;;7.70;99.90;;;;;;5096158;28;20077;-82
2023/10/18 06:43:49;;;;;;;13.05;7.38;;;7.70;99.90;;;;;;5094666;28;20502;-81
2023/10/18 06:46:28;;;;;;;13.05;7.25;;;7.70;99.90;;;;;;5095938;28;20456;-81
2023/10/18 06:48:55;;;;;;;15.25;7.00;;;7.70;99.90;;;;;;5094449;28;20068;-82
2023/10/18 06:51:40;;;;;;;13.50;6.70;;;7.70;99.90;;;;;;5094615;28;20461;-82
2023/10/18 06:54:12;;;;;;;85.72;31.02;;;7.80;99.90;;;;;;5094784;28;20024;-82
2023/10/18 06:56:45;;;;;;;78.72;28.90;;;7.80;99.90;;;;;;5095819;28;20051;-82
2023/10/18 06:59:11;;;;;;;154.10;50.05;;;7.80;99.90;;;;;;5094839;28;20039;-82
2023/10/18 07:04:46;;;;;;;242.30;93.07;;;7.90;99.90;;;;;;5092193;28;20078;-83
2023/10/18 07:07:13;;;;;;;225.93;78.07;;;7.90;99.90;;;;;;5079839;28;20060;-81
2023/10/18 07:09:42;;;;;;;181.63;66.78;;;8.00;99.90;;;;;;5074596;28;20063;-80
2023/10/18 07:12:11;;;;;;;213.48;80.53;;;8.00;99.90;;;;;;5082396;28;20111;-81
2023/10/18 07:14:37;;;;;;;189.60;65.97;;;8.00;99.90;;;;;;5085217;28;20028;-82
2023/10/18 07:17:04;;;;;;;273.90;97.97;;;8.00;99.90;;;;;;5082581;28;20051;-81
2023/10/18 07:19:33;;;;;;;145.05;53.35;;;8.10;99.90;;;;;;5082955;28;20098;-82
2023/10/18 07:22:05;;;;;;;302.27;93.45;;;8.10;99.90;;;;;;5081418;28;20269;-81
2023/10/18 07:24:38;;;;;;;216.68;70.18;;;8.20;99.90;;;;;;5084210;28;20370;-82
2023/10/18 07:27:03;;;;;;;111.40;40.53;;;8.20;99.90;;;;;;5086971;28;20024;-80
2023/10/18 07:29:31;;;;;;;385.25;113.25;;;8.20;99.90;;;;;;5083858;28;20032;-84
2023/10/18 07:31:59;;;;;;;228.55;76.60;;;8.20;99.90;;;;;;5084470;28;20378;-81
2023/10/18 07:34:36;;;;;;;118.32;41.33;;;8.30;99.90;;;;;;5084359;28;20477;-82
2023/10/18 07:37:17;;;;;;;91.93;30.13;;;8.40;99.90;;;;;;5084125;28;20028;-82
2023/10/18 07:39:44;;;;;;;60.30;23.42;;;8.40;99.90;;;;;;5085350;28;20029;-80
2023/10/18 07:42:12;;;;;;;106.65;34.97;;;8.40;99.90;;;;;;5085937;28;20031;-81
2023/10/18 07:44:41;;;;;;;86.28;30.52;;;8.50;99.90;;;;;;5081658;28;20068;-80
2023/10/18 07:47:09;;;;;;;106.57;36.88;;;8.40;99.90;;;;;;5083956;28;20036;-81
2023/10/18 07:49:34;;;;;;;104.15;34.38;;;8.40;99.90;;;;;;5081827;28;20021;-83
2023/10/18 07:52:00;;;;;;;109.43;39.17;;;8.50;99.90;;;;;;5084183;28;20194;-80
2023/10/18 07:54:26;;;;;;;82.68;29.27;;;8.50;99.90;;;;;;5081661;28;20111;-80
2023/10/18 07:56:54;;;;;;;78.15;28.38;;;8.50;99.90;;;;;;5090068;28;20122;-83
2023/10/18 07:59:30;;;;;;;43.85;17.60;;;8.60;99.90;;;;;;5092080;28;20024;-84
2023/10/18 08:04:38;;;;;;;67.63;25.05;;;8.60;99.90;;;;;;5104666;28;20032;-83
2023/10/18 08:07:05;;;;;;;36.72;15.95;;;8.60;99.90;;;;;;5092494;28;20085;-85
2023/10/18 08:09:31;;;;;;;29.90;13.10;;;8.60;99.90;;;;;;5111103;28;20035;-88
2023/10/18 08:12:05;;;;;;;19.85;10.70;;;8.60;99.90;;;;;;5096225;28;20027;-84
2023/10/18 08:14:32;;;;;;;14.95;8.13;;;8.60;99.90;;;;;;5104289;28;20108;-83
2023/10/18 08:16:58;;;;;;;14.77;8.20;;;8.60;99.90;;;;;;5100148;28;20030;-83
2023/10/18 08:19:24;;;;;;;16.10;8.38;;;8.70;99.90;;;;;;5109188;28;20027;-84
2023/10/18 08:24:34;;;;;;;16.67;7.63;;;8.70;99.90;;;;;;5105501;28;20060;-86
2023/10/18 08:27:10;;;;;;;14.43;7.70;;;8.80;99.90;;;;;;5086103;28;20385;-82
2023/10/18 08:29:38;;;;;;;14.40;7.10;;;8.90;99.90;;;;;;5085375;28;20024;-83
2023/10/18 08:32:14;;;;;;;12.93;7.03;;;8.90;99.90;;;;;;5088256;28;20209;-82
2023/10/18 08:34:40;;;;;;;17.25;7.10;;;8.90;99.90;;;;;;5103184;28;20040;-85
2023/10/18 08:37:09;;;;;;;14.93;7.32;;;9.00;99.90;;;;;;5104260;28;20035;-85
2023/10/18 08:39:39;;;;;;;16.90;7.13;;;9.00;99.90;;;;;;5106800;28;20076;-83
2023/10/18 08:42:10;;;;;;;15.65;7.95;;;9.00;99.90;;;;;;5097012;28;20016;-86
2023/10/18 08:44:38;;;;;;;16.27;7.28;;;9.10;99.90;;;;;;5103006;28;20035;-85
2023/10/18 08:49:47;;;;;;;18.33;7.95;;;9.20;99.90;;;;;;5114069;28;20035;-88
2023/10/18 08:52:20;;;;;;;13.70;6.88;;;9.20;99.90;;;;;;5098729;28;20114;-84
2023/10/18 08:54:46;;;;;;;86.53;27.27;;;9.30;99.90;;;;;;5107311;28;20080;-82
2023/10/18 08:57:15;;;;;;;136.02;42.05;;;9.30;99.90;;;;;;5098258;28;20024;-84
2023/10/18 08:59:48;;;;;;;87.63;28.45;;;9.40;99.90;;;;;;5099178;28;20024;-84
2023/10/18 09:02:23;;;;;;;209.18;68.45;;;9.40;99.90;;;;;;5113040;28;20168;-89
2023/10/18 09:04:53;;;;;;;100.15;35.88;;;9.50;99.90;;;;;;5100961;28;20029;-88
2023/10/18 09:07:22;;;;;;;244.73;83.05;;;9.50;99.90;;;;;;5107692;28;20524;-90
2023/10/18 09:09:57;;;;;;;208.52;74.85;;;9.50;99.90;;;;;;5095971;28;20016;-86
2023/10/18 09:17:56;;;;;;;42.70;17.42;;;9.70;99.90;;;;;;5097406;28;20101;-85
2023/10/18 09:20:26;;;;;;;26.17;10.77;;;9.70;99.90;;;;;;5093064;28;20036;-86
2023/10/18 09:23:01;;;;;;;142.60;52.95;;;9.70;99.90;;;;;;5099511;28;20110;-86
2023/10/18 09:28:11;;;;;;;102.00;33.85;;;9.80;99.90;;;;;;5083338;28;20098;-83
2023/10/18 09:30:37;;;;;;;168.82;60.55;;;9.80;99.90;;;;;;5092031;28;20119;-82
2023/10/18 09:33:04;;;;;;;108.18;38.28;;;9.80;99.90;;;;;;5087916;28;20028;-81
2023/10/18 09:35:30;;;;;;;54.38;22.77;;;9.90;99.90;;;;;;5082065;28;20052;-81
2023/10/18 09:38:08;;;;;;;143.90;50.88;;;9.90;99.90;;;;;;5089597;28;20024;-84
2023/10/18 09:40:36;;;;;;;59.88;24.55;;;9.90;99.90;;;;;;5092717;28;20016;-82
2023/10/18 09:43:03;;;;;;;154.88;52.38;;;10.00;99.90;;;;;;5090723;28;20347;-88
2023/10/18 09:45:28;;;;;;;93.38;36.47;;;10.10;99.90;;;;;;5088756;28;20050;-83
2023/10/18 09:47:58;;;;;;;81.65;31.20;;;10.20;99.90;;;;;;5088911;28;20032;-82
2023/10/18 09:50:28;;;;;;;46.17;19.42;;;10.40;99.90;;;;;;5089114;28;20115;-83
2023/10/18 09:52:59;;;;;;;58.08;22.90;;;10.60;99.90;;;;;;5095705;28;20024;-85
2023/10/18 09:55:28;;;;;;;58.90;22.58;;;10.70;99.90;;;;;;5090700;28;20493;-85
2023/10/18 09:58:04;;;;;;;52.83;21.58;;;10.80;99.90;;;;;;5081762;28;20039;-80
2023/10/18 10:00:42;;;;;;;22.40;11.15;;;10.90;99.90;;;;;;5083042;28;20481;-82
2023/10/18 10:03:09;;;;;;;59.83;25.48;;;10.90;99.90;;;;;;5075121;28;20115;-82
2023/10/18 10:05:42;;;;;;;49.22;20.48;;;10.90;99.90;;;;;;5076605;28;20025;-81
2023/10/18 10:08:09;;;;;;;59.03;25.27;;;11.00;99.90;;;;;;5075155;28;20377;-81
2023/10/18 10:10:49;;;;;;;68.28;27.80;;;11.00;99.90;;;;;;5075729;28;20024;-83
2023/10/18 10:13:18;;;;;;;36.08;15.68;;;11.10;99.90;;;;;;5076579;28;20021;-82
2023/10/18 10:16:09;;;;;;;19.13;10.43;;;11.20;99.90;;;;;;5075250;28;20039;-80
2023/10/18 10:18:39;;;;;;;12.52;7.72;;;11.20;99.90;;;;;;5075223;28;20057;-83
2023/10/18 10:21:08;;;;;;;15.98;8.90;;;11.30;99.90;;;;;;5074577;28;20121;-83
2023/10/18 10:23:41;;;;;;;16.00;8.35;;;11.30;99.90;;;;;;5076317;28;20523;-83
2023/10/18 10:26:15;;;;;;;13.95;6.90;;;11.30;99.90;;;;;;5074323;28;20028;-83
2023/10/18 10:31:58;;;;;;;11.07;6.47;;;11.40;99.80;;;;;;5076287;28;20024;-83
2023/10/18 10:34:32;;;;;;;14.20;6.55;;;11.50;99.90;;;;;;5074647;28;20089;-83
2023/10/18 10:37:12;;;;;;;12.25;6.78;;;11.60;99.90;;;;;;5074616;28;20477;-83
2023/10/18 10:39:45;;;;;;;11.48;6.47;;;11.70;99.80;;;;;;5075181;28;20477;-84
2023/10/18 10:42:41;;;;;;;11.05;6.22;;;11.70;99.60;;;;;;5075883;28;20096;-84
2023/10/18 10:45:23;;;;;;;13.50;6.00;;;11.80;99.70;;;;;;5075160;28;20052;-83
2023/10/18 10:47:50;;;;;;;11.05;6.45;;;11.60;99.60;;;;;;5074423;28;20105;-84
2023/10/18 10:50:42;;;;;;;10.18;6.57;;;11.70;99.50;;;;;;5074944;28;20025;-83
2023/10/18 10:53:28;;;;;;;12.82;6.10;;;11.70;99.60;;;;;;5074356;28;20112;-82
2023/10/18 10:55:54;;;;;;;12.02;6.53;;;11.60;99.80;;;;;;5073629;28;20131;-82
2023/10/18 10:58:22;;;;;;;15.02;6.55;;;11.60;99.80;;;;;;5075781;28;20049;-82
2023/10/18 11:01:07;;;;;;;12.75;6.05;;;11.60;99.80;;;;;;5074080;28;20351;-82
2023/10/18 11:03:55;;;;;;;11.77;6.70;;;11.60;99.90;;;;;;5074563;28;20017;-84
2023/10/18 11:06:25;;;;;;;9.68;5.85;;;11.70;99.90;;;;;;5074518;28;20078;-84
2023/10/18 11:08:54;;;;;;;12.98;6.60;;;11.70;99.90;;;;;;5073593;28;20056;-84
2023/10/18 11:11:21;;;;;;;12.63;6.25;;;11.80;99.90;;;;;;5074603;28;20102;-84
2023/10/18 11:13:50;;;;;;;12.93;6.80;;;11.80;99.90;;;;;;5074175;28;20032;-84
2023/10/18 11:16:24;;;;;;;12.45;5.68;;;11.90;99.80;;;;;;5074428;28;20043;-84
2023/10/18 11:18:49;;;;;;;12.05;6.50;;;12.00;99.70;;;;;;5074801;28;20029;-81
2023/10/18 11:21:21;;;;;;;10.18;5.63;;;12.00;99.70;;;;;;5074360;28;20078;-85
2023/10/18 11:23:57;;;;;;;12.93;6.22;;;12.00;99.60;;;;;;5074205;28;20035;-85
2023/10/18 11:26:27;;;;;;;9.88;6.25;;;12.10;99.50;;;;;;5074291;28;20036;-83
2023/10/18 11:28:58;;;;;;;11.40;6.57;;;12.20;99.60;;;;;;5073436;28;20029;-83
2023/10/18 11:31:28;;;;;;;12.52;6.00;;;12.30;99.40;;;;;;5074121;28;20025;-83
2023/10/18 11:34:05;;;;;;;10.38;5.30;;;12.40;99.20;;;;;;5073501;28;20052;-83
2023/10/18 11:36:35;;;;;;;11.10;6.22;;;12.50;99.10;;;;;;5075048;28;20044;-83
2023/10/18 11:39:18;;;;;;;12.43;6.45;;;12.50;99.10;;;;;;5072640;28;20024;-82
2023/10/18 11:41:53;;;;;;;10.15;5.53;;;12.60;99.00;;;;;;5073609;28;20024;-83
2023/10/18 11:44:32;;;;;;;14.02;6.38;;;12.60;99.00;;;;;;5073511;28;20466;-83
2023/10/18 11:47:11;;;;;;;12.25;6.63;;;12.60;99.00;;;;;;5073144;28;20044;-80
2023/10/18 11:49:42;;;;;;;11.60;6.38;;;12.60;99.00;;;;;;5073645;28;20039;-81
2023/10/18 11:52:21;;;;;;;11.00;6.07;;;12.70;99.00;;;;;;5073068;28;20458;-80
2023/10/18 11:54:52;;;;;;;10.15;5.90;;;12.70;99.00;;;;;;5073855;28;20117;-81
2023/10/18 11:57:35;;;;;;;11.57;5.88;;;12.80;99.00;;;;;;5073753;28;20082;-81
2023/10/18 12:02:45;;;;;;;10.55;5.75;;;12.90;99.00;;;;;;5074639;28;20032;-81
2023/10/18 12:05:17;;;;;;;8.93;5.53;;;12.90;99.30;;;;;;5072907;28;20094;-83
2023/10/18 12:07:45;;;;;;;11.05;5.47;;;12.90;99.20;;;;;;5074384;28;20025;-83
2023/10/18 12:10:25;;;;;;;11.95;6.05;;;13.00;99.60;;;;;;5072678;28;20032;-82
2023/10/18 12:12:51;;;;;;;12.20;5.75;;;13.00;99.00;;;;;;5072949;28;20073;-82
2023/10/18 12:15:19;;;;;;;10.20;4.82;;;13.00;99.00;;;;;;5073138;28;20029;-83
2023/10/18 12:17:46;;;;;;;11.68;5.90;;;13.00;99.00;;;;;;5073313;28;20032;-83
2023/10/18 12:20:12;;;;;;;9.45;6.00;;;13.10;99.10;;;;;;5072891;28;20323;-83
2023/10/18 12:22:42;;;;;;;10.93;5.53;;;13.20;99.10;;;;;;5073199;28;20025;-81
2023/10/18 12:25:08;;;;;;;10.82;5.38;;;13.10;99.60;;;;;;5072387;28;20420;-81
2023/10/18 12:27:34;;;;;;;11.15;5.45;;;13.20;99.00;;;;;;5074138;28;20033;-81
2023/10/18 12:30:26;;;;;;;10.90;6.65;;;13.20;98.90;;;;;;5073602;28;20035;-81
2023/10/18 12:32:52;;;;;;;10.82;5.82;;;13.20;99.00;;;;;;5072750;28;20020;-80
2023/10/18 12:35:19;;;;;;;8.98;5.10;;;13.30;98.80;;;;;;5072489;28;20055;-81
2023/10/18 12:37:46;;;;;;;10.23;6.07;;;13.30;98.60;;;;;;5072940;28;20029;-81
2023/10/18 12:40:32;;;;;;;8.63;5.40;;;13.30;98.80;;;;;;5072267;28;20449;-81
2023/10/18 12:43:01;;;;;;;9.20;4.93;;;13.20;99.00;;;;;;5073438;28;20461;-81
2023/10/18 12:45:28;;;;;;;9.57;5.82;;;13.20;99.10;;;;;;5074094;28;20038;-82
2023/10/18 12:47:53;;;;;;;11.60;5.30;;;13.20;98.90;;;;;;5072560;28;20490;-78
2023/10/18 12:50:19;;;;;;;9.43;5.45;;;13.10;99.00;;;;;;5076130;28;20035;-82
2023/10/18 12:52:47;;;;;;;11.68;5.20;;;13.10;99.10;;;;;;5080232;28;20393;-81
2023/10/18 12:57:57;;;;;;;8.93;5.20;;;13.10;98.90;;;;;;5079947;28;20063;-81
2023/10/18 13:00:26;;;;;;;12.82;6.32;;;13.10;99.00;;;;;;5079425;28;20470;-81
2023/10/18 13:05:21;;;;;;;11.95;6.07;;;12.90;99.00;;;;;;5097886;28;20037;-81
2023/10/18 13:07:52;;;;;;;10.77;4.95;;;12.90;99.20;;;;;;5111442;28;20032;-81
2023/10/18 13:10:43;;;;;;;11.98;5.50;;;13.00;99.30;;;;;;5110950;27;20024;-82
2023/10/18 13:13:09;;;;;;;12.25;5.60;;;13.00;99.30;;;;;;5115205;28;20031;-80
2023/10/18 13:15:40;;;;;;;11.73;5.55;;;13.00;99.60;;;;;;5100351;28;20032;-81
2023/10/18 13:18:06;;;;;;;10.98;5.22;;;13.00;99.60;;;;;;5100245;28;20111;-83
2023/10/18 13:20:34;;;;;;;8.25;4.72;;;13.00;99.50;;;;;;5100605;28;20059;-83
2023/10/18 13:23:01;;;;;;;10.23;5.28;;;13.00;99.50;;;;;;5113447;28;20063;-81
2023/10/18 13:25:36;;;;;;;9.48;5.13;;;12.90;99.50;;;;;;5096218;28;20031;-82
2023/10/18 13:28:06;;;;;;;10.55;5.20;;;13.00;99.80;;;;;;5110427;28;20024;-83
2023/10/18 13:30:32;;;;;;;8.40;4.78;;;13.00;99.90;;;;;;5098935;28;20028;-81
2023/10/18 13:33:11;;;;;;;9.02;5.53;;;13.00;99.80;;;;;;5107200;28;20051;-84
2023/10/18 13:35:39;;;;;;;8.57;5.32;;;13.00;99.70;;;;;;5103584;28;20058;-83
2023/10/18 13:38:05;;;;;;;7.40;4.15;;;12.90;99.80;;;;;;5109985;28;20405;-84
2023/10/18 13:40:36;;;;;;;10.45;4.47;;;12.90;99.80;;;;;;5112444;28;20024;-84
2023/10/18 13:43:07;;;;;;;6.57;4.35;;;12.90;99.90;;;;;;5119139;28;20030;-83
2023/10/18 13:45:35;;;;;;;7.40;4.40;;;13.00;99.90;;;;;;5115013;28;20036;-83
2023/10/18 13:48:02;;;;;;;8.85;5.00;;;13.00;99.90;;;;;;5106794;28;20063;-85
2023/10/18 13:50:31;;;;;;;11.25;4.82;;;12.90;99.90;;;;;;5107125;28;20024;-85